createdAt,value
2022-11-15T00:00:56.570Z,92.64
2022-11-15T00:03:25.829Z,93.09
2022-11-15T00:05:52.467Z,93.30
2022-11-15T00:08:19.127Z,93.37
2022-11-15T00:10:56.173Z,93.56
2022-11-15T00:13:22.629Z,93.47
2022-11-15T00:15:49.251Z,93.55
2022-11-15T00:18:16.771Z,93.59
2022-11-15T00:20:43.898Z,93.50
2022-11-15T00:23:10.781Z,93.45
2022-11-15T00:25:37.293Z,93.52
2022-11-15T00:28:04.210Z,93.46
2022-11-15T00:30:31.456Z,93.64
2022-11-15T00:32:57.862Z,93.73
2022-11-15T00:35:24.493Z,93.85
2022-11-15T00:37:50.882Z,93.87
2022-11-15T00:40:17.279Z,94.00
2022-11-15T00:42:44.003Z,94.05
2022-11-15T00:45:10.795Z,93.97
2022-11-15T00:47:37.230Z,94.15
2022-11-15T00:50:04.709Z,94.02
2022-11-15T00:52:31.235Z,93.73
2022-11-15T00:54:57.623Z,93.91
2022-11-15T00:57:24.058Z,93.97
2022-11-15T00:59:50.419Z,94.25
2022-11-15T01:02:16.917Z,94.55
2022-11-15T01:04:43.451Z,94.38
2022-11-15T01:07:10.001Z,94.17
2022-11-15T01:09:36.558Z,94.88
2022-11-15T01:12:03.246Z,95.71
2022-11-15T01:14:29.706Z,95.86
2022-11-15T01:16:56.240Z,95.91
2022-11-15T01:19:22.658Z,96.31
2022-11-15T01:21:52.702Z,96.74
2022-11-15T01:24:19.284Z,96.52
2022-11-15T01:26:45.778Z,96.45
2022-11-15T01:29:12.252Z,95.97
2022-11-15T01:31:39.083Z,95.54
2022-11-15T01:34:05.766Z,95.43
2022-11-15T01:36:32.527Z,95.30
2022-11-15T01:38:59.763Z,95.43
2022-11-15T01:41:33.049Z,95.14
2022-11-15T01:44:34.473Z,95.40
2022-11-15T01:47:04.422Z,95.42
2022-11-15T01:49:34.515Z,94.64
2022-11-15T01:52:03.110Z,94.69
2022-11-15T01:54:30.253Z,94.10
2022-11-15T01:57:02.619Z,93.74
2022-11-15T01:59:29.578Z,93.31
2022-11-15T02:01:56.495Z,93.13
2022-11-15T02:04:34.997Z,92.71
2022-11-15T02:07:04.468Z,92.72
2022-11-15T02:09:31.384Z,92.75
2022-11-15T02:11:58.611Z,92.31
2022-11-15T02:14:28.496Z,92.60
2022-11-15T02:17:26.031Z,92.45
2022-11-15T02:20:14.416Z,92.38
2022-11-15T02:22:53.102Z,92.35
2022-11-15T02:25:28.783Z,92.93
2022-11-15T02:28:27.842Z,92.84
2022-11-15T02:31:03.551Z,93.18
2022-11-15T02:34:03.546Z,93.37
2022-11-15T02:36:48.327Z,93.35
2022-11-15T02:39:27.061Z,93.46
2022-11-15T02:42:04.972Z,93.18
2022-11-15T02:44:46.192Z,93.10
2022-11-15T02:47:17.720Z,93.05
2022-11-15T02:49:49.961Z,93.17
2022-11-15T02:52:23.277Z,93.07
2022-11-15T02:55:00.982Z,93.04
2022-11-15T02:57:42.639Z,93.41
2022-11-15T03:00:16.375Z,93.47
2022-11-15T03:03:13.642Z,93.81
2022-11-15T03:05:52.366Z,94.34
2022-11-15T03:08:40.728Z,95.91
2022-11-15T03:11:17.023Z,96.11
2022-11-15T03:14:41.026Z,96.14
2022-11-15T03:17:44.275Z,96.25
2022-11-15T03:20:13.026Z,96.29
2022-11-15T03:22:44.533Z,96.01
2022-11-15T03:25:17.204Z,96.18
2022-11-15T03:27:49.514Z,96.24
2022-11-15T03:30:16.810Z,95.72
2022-11-15T03:32:48.575Z,95.56
2022-11-15T03:35:28.280Z,95.30
2022-11-15T03:38:00.636Z,95.11
2022-11-15T03:40:36.812Z,94.89
2022-11-15T03:43:28.566Z,94.86
2022-11-15T03:46:25.534Z,94.70
2022-11-15T03:48:58.057Z,94.64
2022-11-15T03:51:24.604Z,94.47
2022-11-15T03:53:51.308Z,94.81
2022-11-15T03:56:17.976Z,95.18
2022-11-15T03:58:44.333Z,95.58
2022-11-15T04:01:10.754Z,96.45
2022-11-15T04:03:37.504Z,96.88
2022-11-15T04:06:04.024Z,97.80
2022-11-15T04:08:30.443Z,98.12
2022-11-15T04:10:56.921Z,98.52
2022-11-15T04:13:23.379Z,99.15
2022-11-15T04:15:49.850Z,99.80
2022-11-15T04:18:16.426Z,99.91
2022-11-15T04:21:01.609Z,100.00
2022-11-15T04:24:06.654Z,100.00
2022-11-15T04:26:33.614Z,100.00
2022-11-15T04:29:18.647Z,100.00
2022-11-15T04:31:45.055Z,100.00
2022-11-15T04:34:11.885Z,100.00
2022-11-15T04:36:57.166Z,100.00
2022-11-15T04:39:23.596Z,100.00
2022-11-15T04:41:50.064Z,99.98
2022-11-15T04:44:17.358Z,99.97
2022-11-15T04:46:43.829Z,99.99
2022-11-15T04:49:10.240Z,99.65
2022-11-15T04:51:36.827Z,99.05
2022-11-15T04:54:03.383Z,98.51
2022-11-15T04:56:29.864Z,98.35
2022-11-15T04:58:56.309Z,98.32
2022-11-15T05:01:22.807Z,97.88
2022-11-15T05:04:08.313Z,97.73
2022-11-15T05:06:34.774Z,97.65
2022-11-15T05:09:01.257Z,98.10
2022-11-15T05:11:30.635Z,98.15
2022-11-15T05:13:57.196Z,98.48
2022-11-15T05:16:23.581Z,98.54
2022-11-15T05:18:54.271Z,98.43
2022-11-15T05:21:21.347Z,98.57
2022-11-15T05:23:48.145Z,98.59
2022-11-15T05:26:16.884Z,98.75
2022-11-15T05:28:43.257Z,98.65
2022-11-15T05:31:14.412Z,98.63
2022-11-15T05:33:43.144Z,98.35
2022-11-15T05:36:31.073Z,98.55
2022-11-15T05:38:57.770Z,98.27
2022-11-15T05:41:38.181Z,98.20
2022-11-15T05:44:08.224Z,97.97
2022-11-15T05:46:36.214Z,97.57
2022-11-15T05:49:03.011Z,97.31
2022-11-15T05:51:30.476Z,96.99
2022-11-15T05:53:59.097Z,96.95
2022-11-15T05:56:26.825Z,96.48
2022-11-15T05:58:59.515Z,96.34
2022-11-15T06:01:27.904Z,95.97
2022-11-15T06:03:54.509Z,95.72
2022-11-15T06:06:21.104Z,96.13
2022-11-15T06:08:48.839Z,96.04
2022-11-15T06:11:15.383Z,95.65
2022-11-15T06:13:41.826Z,95.55
2022-11-15T06:16:08.313Z,95.16
2022-11-15T06:18:35.744Z,94.86
2022-11-15T06:21:02.593Z,94.54
2022-11-15T06:23:29.742Z,93.99
2022-11-15T06:25:59.593Z,93.59
2022-11-15T06:28:29.219Z,93.18
2022-11-15T06:30:55.756Z,92.88
2022-11-15T06:33:22.208Z,92.71
2022-11-15T06:35:48.581Z,92.52
2022-11-15T06:38:15.053Z,92.82
2022-11-15T06:40:41.546Z,92.65
2022-11-15T06:43:08.539Z,92.66
2022-11-15T06:45:35.188Z,92.72
2022-11-15T06:48:02.052Z,93.06
2022-11-15T06:50:28.579Z,93.16
2022-11-15T06:52:55.742Z,93.74
2022-11-15T06:55:22.219Z,94.07
2022-11-15T06:57:50.968Z,94.63
2022-11-15T07:00:20.075Z,94.94
2022-11-15T07:02:47.317Z,94.81
2022-11-15T07:05:15.514Z,94.94
2022-11-15T07:07:42.069Z,94.83
2022-11-15T07:10:09.809Z,94.82
2022-11-15T07:12:36.233Z,93.97
2022-11-15T07:15:02.988Z,93.29
2022-11-15T07:17:29.343Z,92.69
2022-11-15T07:19:55.747Z,92.39
2022-11-15T07:22:22.171Z,91.84
2022-11-15T07:24:48.715Z,91.76
2022-11-15T07:27:15.366Z,91.59
2022-11-15T07:29:41.880Z,91.97
2022-11-15T07:32:08.294Z,92.17
2022-11-15T07:34:34.734Z,92.15
2022-11-15T07:37:01.376Z,92.32
2022-11-15T07:39:27.912Z,92.33
2022-11-15T07:42:14.338Z,92.19
2022-11-15T07:44:40.727Z,92.09
2022-11-15T07:47:07.115Z,91.90
2022-11-15T07:49:33.530Z,91.77
2022-11-15T07:51:59.998Z,91.56
2022-11-15T07:54:26.441Z,91.68
2022-11-15T07:56:52.850Z,91.38
2022-11-15T07:59:20.274Z,91.30
2022-11-15T08:01:46.773Z,91.01
2022-11-15T08:04:13.245Z,90.99
2022-11-15T08:06:39.622Z,90.90
2022-11-15T08:09:06.081Z,90.85
2022-11-15T08:11:32.517Z,90.77
2022-11-15T08:14:00.160Z,90.68
2022-11-15T08:16:26.583Z,90.64
2022-11-15T08:18:53.020Z,90.22
2022-11-15T08:21:21.477Z,90.23
2022-11-15T08:23:48.441Z,90.02
2022-11-15T08:26:15.468Z,89.85
2022-11-15T08:28:42.143Z,89.57
2022-11-15T08:31:15.162Z,89.55
2022-11-15T08:33:41.592Z,89.42
2022-11-15T08:36:14.150Z,89.41
2022-11-15T08:38:40.539Z,89.29
2022-11-15T08:41:07.290Z,88.96
2022-11-15T08:43:34.541Z,88.63
2022-11-15T08:46:01.463Z,88.67
2022-11-15T08:48:27.897Z,88.14
2022-11-15T08:50:56.263Z,87.86
2022-11-15T08:53:22.892Z,87.49
2022-11-15T08:55:49.249Z,87.22
2022-11-15T08:58:15.748Z,86.91
2022-11-15T09:00:42.274Z,86.70
2022-11-15T09:03:10.401Z,86.15
2022-11-15T09:05:38.659Z,85.85
2022-11-15T09:08:19.090Z,85.63
2022-11-15T09:10:52.452Z,85.33
2022-11-15T09:13:18.854Z,85.01
2022-11-15T09:15:45.287Z,84.08
2022-11-15T09:18:11.739Z,84.17
2022-11-15T09:20:38.160Z,83.63
2022-11-15T09:23:06.005Z,83.58
2022-11-15T09:25:33.074Z,83.09
2022-11-15T09:27:59.571Z,83.57
2022-11-15T09:30:27.351Z,82.96
2022-11-15T09:32:53.729Z,83.02
2022-11-15T09:35:20.133Z,81.88
2022-11-15T09:37:46.727Z,81.40
2022-11-15T09:40:17.831Z,81.05
2022-11-15T09:42:54.084Z,80.84
2022-11-15T09:45:32.029Z,80.50
2022-11-15T09:48:36.738Z,80.21
2022-11-15T09:51:05.775Z,79.87
2022-11-15T09:54:13.623Z,79.58
2022-11-15T09:56:23.329Z,79.51
2022-11-15T09:59:32.480Z,78.76
2022-11-15T10:02:16.905Z,77.93
2022-11-15T10:04:43.981Z,77.24
2022-11-15T10:07:43.643Z,77.23
2022-11-15T10:10:26.844Z,77.52
2022-11-15T10:12:54.267Z,77.11
2022-11-15T10:15:23.650Z,77.13
2022-11-15T10:17:52.977Z,76.75
2022-11-15T10:20:27.451Z,76.77
2022-11-15T10:22:57.482Z,76.59
2022-11-15T10:25:26.988Z,76.44
2022-11-15T10:27:56.631Z,75.73
2022-11-15T10:30:24.283Z,75.20
2022-11-15T10:32:50.913Z,74.57
2022-11-15T10:35:24.321Z,74.29
2022-11-15T10:37:50.879Z,73.54
2022-11-15T10:40:24.638Z,73.56
2022-11-15T10:43:15.500Z,73.43
2022-11-15T10:45:42.888Z,72.38
2022-11-15T10:48:15.393Z,72.30
2022-11-15T10:50:47.228Z,72.41
2022-11-15T10:53:38.787Z,72.45
2022-11-15T10:56:09.850Z,72.15
2022-11-15T10:58:41.951Z,71.93
2022-11-15T11:01:14.853Z,72.19
2022-11-15T11:03:43.026Z,71.79
2022-11-15T11:06:18.710Z,71.28
2022-11-15T11:08:57.313Z,69.74
2022-11-15T11:11:24.297Z,69.06
2022-11-15T11:13:51.101Z,67.70
2022-11-15T11:16:36.314Z,67.00
2022-11-15T11:19:24.112Z,66.47
2022-11-15T11:22:25.673Z,66.28
2022-11-15T11:25:15.700Z,64.71
2022-11-15T11:28:20.551Z,63.25
2022-11-15T11:31:05.081Z,63.20
2022-11-15T11:33:37.475Z,61.84
2022-11-15T11:36:24.422Z,61.28
2022-11-15T11:38:59.441Z,60.39
2022-11-15T11:41:31.726Z,59.87
2022-11-15T11:44:24.572Z,59.72
2022-11-15T11:47:19.615Z,59.69
2022-11-15T11:49:52.480Z,59.91
2022-11-15T11:52:39.658Z,59.39
2022-11-15T11:55:17.390Z,58.89
2022-11-15T11:58:08.898Z,58.09
2022-11-15T12:00:42.265Z,57.42
2022-11-15T12:03:08.815Z,56.19
2022-11-15T12:05:46.129Z,55.63
2022-11-15T12:08:40.728Z,54.47
2022-11-15T12:11:30.118Z,53.59
2022-11-15T12:14:04.550Z,53.44
2022-11-15T12:16:33.600Z,52.66
2022-11-15T12:19:02.255Z,52.07
2022-11-15T12:21:56.754Z,51.86
2022-11-15T12:24:29.633Z,51.27
2022-11-15T12:27:06.339Z,51.31
2022-11-15T12:29:39.668Z,50.73
2022-11-15T12:32:18.530Z,51.37
2022-11-15T12:34:49.082Z,50.90
2022-11-15T12:37:38.736Z,50.99
2022-11-15T12:40:36.066Z,51.71
2022-11-15T12:43:41.951Z,52.17
2022-11-15T12:46:14.142Z,52.98
2022-11-15T12:48:40.468Z,53.71
2022-11-15T12:51:07.003Z,54.16
2022-11-15T12:53:35.923Z,55.19
2022-11-15T12:56:05.290Z,55.63
2022-11-15T12:58:47.357Z,56.48
2022-11-15T13:01:32.839Z,57.45
2022-11-15T13:04:14.681Z,58.13
2022-11-15T13:06:53.719Z,58.14
2022-11-15T13:09:38.542Z,57.94
2022-11-15T13:12:13.601Z,57.82
2022-11-15T13:14:51.198Z,57.18
2022-11-15T13:17:20.597Z,57.29
2022-11-15T13:19:53.496Z,57.19
2022-11-15T13:22:38.617Z,56.30
2022-11-15T13:25:20.835Z,56.38
2022-11-15T13:27:50.161Z,56.37
2022-11-15T13:30:26.089Z,56.84
2022-11-15T13:32:53.737Z,56.04
2022-11-15T13:35:25.851Z,54.75
2022-11-15T13:37:53.710Z,54.28
2022-11-15T13:40:25.559Z,51.64
2022-11-15T13:42:52.093Z,49.38
2022-11-15T13:45:20.635Z,48.68
2022-11-15T13:47:53.293Z,47.62
2022-11-15T13:50:25.788Z,45.58
2022-11-15T13:52:53.664Z,43.99
2022-11-15T13:55:23.522Z,43.26
2022-11-15T13:57:54.582Z,42.59
2022-11-15T14:00:38.802Z,42.67
2022-11-15T14:03:17.397Z,42.28
2022-11-15T14:05:44.522Z,41.79
2022-11-15T14:08:29.270Z,41.59
2022-11-15T14:11:16.010Z,41.49
2022-11-15T14:13:43.393Z,41.77
2022-11-15T14:16:24.194Z,41.13
2022-11-15T14:18:53.057Z,41.24
2022-11-15T14:21:20.900Z,41.44
2022-11-15T14:23:47.544Z,41.46
2022-11-15T14:26:32.301Z,41.65
2022-11-15T14:29:36.539Z,42.08
2022-11-15T14:32:24.060Z,43.09
2022-11-15T14:35:01.781Z,44.23
2022-11-15T14:37:36.123Z,45.18
2022-11-15T14:40:05.633Z,46.62
2022-11-15T14:42:32.233Z,48.29
2022-11-15T14:44:59.071Z,49.26
2022-11-15T14:47:25.483Z,50.30
2022-11-15T14:49:51.894Z,50.72
2022-11-15T14:52:31.566Z,51.57
2022-11-15T14:55:00.550Z,53.26
2022-11-15T14:57:26.943Z,54.95
2022-11-15T14:59:53.512Z,56.48
2022-11-15T15:02:22.586Z,57.82
2022-11-15T15:04:49.540Z,59.13
2022-11-15T15:07:17.137Z,60.45
2022-11-15T15:09:44.599Z,61.25
2022-11-15T15:12:24.471Z,62.06
2022-11-15T15:14:52.153Z,63.11
2022-11-15T15:17:19.088Z,64.06
2022-11-15T15:19:45.643Z,64.84
2022-11-15T15:22:17.458Z,65.21
2022-11-15T15:24:45.251Z,66.26
2022-11-15T15:27:12.137Z,67.11
2022-11-15T15:29:39.451Z,68.19
2022-11-15T15:32:06.453Z,68.40
2022-11-15T15:34:33.607Z,69.30
2022-11-15T15:37:19.024Z,70.07
2022-11-15T15:39:45.457Z,71.12
2022-11-15T15:42:11.986Z,72.10
2022-11-15T15:44:38.653Z,72.52
2022-11-15T15:47:16.512Z,73.45
2022-11-15T15:49:43.564Z,74.25
2022-11-15T15:52:10.055Z,75.25
2022-11-15T15:54:36.457Z,75.65
2022-11-15T15:57:03.118Z,76.08
2022-11-15T15:59:29.683Z,76.09
2022-11-15T16:01:56.061Z,76.08
2022-11-15T16:04:22.809Z,75.99
2022-11-15T16:06:51.279Z,75.77
2022-11-15T16:09:20.784Z,76.02
2022-11-15T16:11:48.039Z,76.03
2022-11-15T16:14:14.477Z,76.47
2022-11-15T16:16:41.211Z,76.68
2022-11-15T16:19:11.361Z,76.80
2022-11-15T16:21:37.771Z,77.07
2022-11-15T16:24:04.481Z,77.60
2022-11-15T16:26:31.111Z,77.75
2022-11-15T16:28:58.459Z,78.02
2022-11-15T16:31:24.880Z,78.28
2022-11-15T16:33:51.247Z,78.59
2022-11-15T16:36:23.419Z,79.04
2022-11-15T16:38:53.699Z,79.54
2022-11-15T16:41:20.182Z,79.82
2022-11-15T16:43:46.887Z,80.18
2022-11-15T16:46:27.993Z,80.26
2022-11-15T16:48:55.120Z,80.46
2022-11-15T16:51:22.726Z,80.70
2022-11-15T16:53:50.038Z,80.51
2022-11-15T16:56:26.510Z,80.82
2022-11-15T16:58:58.544Z,80.90
2022-11-15T17:01:26.659Z,81.05
2022-11-15T17:03:54.125Z,81.13
2022-11-15T17:06:21.834Z,81.35
2022-11-15T17:08:48.797Z,81.56
2022-11-15T17:11:20.899Z,81.62
2022-11-15T17:13:48.735Z,81.81
2022-11-15T17:16:17.556Z,81.98
2022-11-15T17:18:47.374Z,82.34
2022-11-15T17:21:16.355Z,82.62
2022-11-15T17:23:43.384Z,83.05
2022-11-15T17:26:28.735Z,83.07
2022-11-15T17:28:56.512Z,83.14
2022-11-15T17:31:23.304Z,83.30
2022-11-15T17:33:49.753Z,83.65
2022-11-15T17:36:19.442Z,83.86
2022-11-15T17:38:50.334Z,84.12
2022-11-15T17:41:17.210Z,84.38
2022-11-15T17:43:44.174Z,84.59
2022-11-15T17:46:16.960Z,84.84
2022-11-15T17:48:44.304Z,85.26
2022-11-15T17:51:12.976Z,85.23
2022-11-15T17:53:41.448Z,85.57
2022-11-15T17:56:18.942Z,85.64
2022-11-15T17:58:53.814Z,85.86
2022-11-15T18:01:32.157Z,85.84
2022-11-15T18:04:00.668Z,85.85
2022-11-15T18:06:30.613Z,85.93
2022-11-15T18:08:57.870Z,86.08
2022-11-15T18:11:30.389Z,86.14
2022-11-15T18:13:59.982Z,86.40
2022-11-15T18:16:30.917Z,86.74
2022-11-15T18:18:58.096Z,86.83
2022-11-15T18:21:27.914Z,87.05
2022-11-15T18:23:59.919Z,86.76
2022-11-15T18:26:28.731Z,86.93
2022-11-15T18:28:57.710Z,86.78
2022-11-15T18:31:28.070Z,86.92
2022-11-15T18:33:55.168Z,86.86
2022-11-15T18:36:30.649Z,86.63
2022-11-15T18:38:59.621Z,86.68
2022-11-15T18:41:29.761Z,86.40
2022-11-15T18:43:58.427Z,86.23
2022-11-15T18:46:27.191Z,85.94
2022-11-15T18:48:55.185Z,85.70
2022-11-15T18:51:26.284Z,85.40
2022-11-15T18:53:54.344Z,85.26
2022-11-15T18:56:22.293Z,85.09
2022-11-15T18:58:51.046Z,84.79
2022-11-15T19:01:22.986Z,84.66
2022-11-15T19:03:51.758Z,84.49
2022-11-15T19:06:20.775Z,84.52
2022-11-15T19:08:50.339Z,84.42
2022-11-15T19:11:21.215Z,84.28
2022-11-15T19:13:47.986Z,84.08
2022-11-15T19:16:15.986Z,83.91
2022-11-15T19:18:42.773Z,83.64
2022-11-15T19:21:16.060Z,83.53
2022-11-15T19:23:43.412Z,83.41
2022-11-15T19:26:15.470Z,83.22
2022-11-15T19:28:43.031Z,83.23
2022-11-15T19:31:15.074Z,83.07
2022-11-15T19:33:43.376Z,83.09
2022-11-15T19:36:15.878Z,82.83
2022-11-15T19:38:43.292Z,82.99
2022-11-15T19:41:12.203Z,82.84
2022-11-15T19:43:38.863Z,82.83
2022-11-15T19:46:07.253Z,82.77
2022-11-15T19:48:34.464Z,82.55
2022-11-15T19:51:05.544Z,82.40
2022-11-15T19:53:35.521Z,82.40
2022-11-15T19:56:05.162Z,82.25
2022-11-15T19:58:31.852Z,82.14
2022-11-15T20:01:04.010Z,82.20
2022-11-15T20:03:32.615Z,82.21
2022-11-15T20:06:08.296Z,82.27
2022-11-15T20:08:35.747Z,82.30
2022-11-15T20:11:03.614Z,82.22
2022-11-15T20:13:30.770Z,82.24
2022-11-15T20:15:58.518Z,82.15
2022-11-15T20:18:26.608Z,82.05
2022-11-15T20:20:56.604Z,82.16
2022-11-15T20:23:23.519Z,82.24
2022-11-15T20:25:50.425Z,82.30
2022-11-15T20:28:19.488Z,82.55
2022-11-15T20:30:47.434Z,82.57
2022-11-15T20:33:14.808Z,82.73
2022-11-15T20:35:41.596Z,82.72
2022-11-15T20:38:08.997Z,82.76
2022-11-15T20:44:16.480Z,83.06
2022-11-15T20:46:42.915Z,83.00
2022-11-15T20:49:09.630Z,83.02
2022-11-15T20:51:36.906Z,82.99
2022-11-15T20:54:04.057Z,83.08
2022-11-15T20:56:30.596Z,82.89
2022-11-15T20:58:56.987Z,82.94
2022-11-15T21:01:24.788Z,82.90
2022-11-15T21:03:52.918Z,82.94
2022-11-15T21:06:20.970Z,82.86
2022-11-15T21:09:07.509Z,82.90
2022-11-15T21:11:52.615Z,82.79
2022-11-15T21:14:19.185Z,82.62
2022-11-15T21:16:45.785Z,82.56
2022-11-15T21:19:12.326Z,82.53
2022-11-15T21:21:38.776Z,82.38
2022-11-15T21:24:07.874Z,82.23
2022-11-15T21:26:35.661Z,82.26
2022-11-15T21:29:03.119Z,82.24
2022-11-15T21:31:30.112Z,82.07
2022-11-15T21:33:56.509Z,82.11
2022-11-15T21:36:25.108Z,82.24
2022-11-15T21:38:51.569Z,82.23
2022-11-15T21:41:18.078Z,82.13
2022-11-15T21:43:44.605Z,82.14
2022-11-15T21:46:11.066Z,82.08
2022-11-15T21:48:37.631Z,82.10
2022-11-15T21:51:06.805Z,82.11
2022-11-15T21:53:33.862Z,82.11
2022-11-15T21:56:01.108Z,82.09
2022-11-15T21:58:28.170Z,81.87
2022-11-15T22:01:13.884Z,81.97
2022-11-15T22:03:40.944Z,81.84
2022-11-15T22:06:07.466Z,81.83
2022-11-15T22:08:34.378Z,81.83
2022-11-15T22:11:01.229Z,81.76
2022-11-15T22:13:27.894Z,81.67
2022-11-15T22:15:54.817Z,81.62
2022-11-15T22:18:26.355Z,81.74
2022-11-15T22:21:00.682Z,81.77
2022-11-15T22:23:30.619Z,81.79
2022-11-15T22:25:57.096Z,81.73
2022-11-15T22:28:24.089Z,81.81
2022-11-15T22:30:53.673Z,81.70
2022-11-15T22:33:22.489Z,81.78
2022-11-15T22:35:49.762Z,81.76
2022-11-15T22:38:16.751Z,81.65
2022-11-15T22:40:43.807Z,81.71
2022-11-15T22:43:13.210Z,81.46
2022-11-15T22:45:47.830Z,81.46
2022-11-15T22:48:14.377Z,81.44
2022-11-15T22:50:41.723Z,81.48
2022-11-15T22:53:08.168Z,81.42
2022-11-15T22:55:34.845Z,81.51
2022-11-15T22:58:01.278Z,81.46
2022-11-15T23:00:27.779Z,81.52
2022-11-15T23:02:54.518Z,81.73
2022-11-15T23:05:21.365Z,81.78
2022-11-15T23:07:47.871Z,81.95
2022-11-15T23:10:32.723Z,82.05
2022-11-15T23:13:16.039Z,82.24
2022-11-15T23:16:02.555Z,82.37
2022-11-15T23:18:29.153Z,82.32
2022-11-15T23:20:55.787Z,82.33
2022-11-15T23:23:22.258Z,82.33
2022-11-15T23:25:57.687Z,82.28
2022-11-15T23:28:24.170Z,82.23
2022-11-15T23:31:09.339Z,82.00
2022-11-15T23:33:54.487Z,81.96
2022-11-15T23:36:21.062Z,82.01
2022-11-15T23:38:47.733Z,81.88
2022-11-15T23:41:14.327Z,82.06
2022-11-15T23:43:40.818Z,82.04
2022-11-15T23:46:07.340Z,82.18
2022-11-15T23:48:33.995Z,82.19
2022-11-15T23:51:00.715Z,82.42
2022-11-15T23:53:27.410Z,82.39
2022-11-15T23:56:00.145Z,82.37
2022-11-15T23:58:26.777Z,82.37
